LIPELIPY

Guest
Details From LIPE - BOLOGNA
To LIPY - FALCONARA
Flight Number -
Tags decoded
Created
Modified
Stats Distance 119 nm / 220 km
Max Altitude 0 ft / 0 m
Waypoints 4
Social Downloads 7
Likes 0
Share VATSIM

Download

Looking for another format? Having issues loading an existing format? Contact us
Advertisement - Login to hide

Notes

Requested: LIPE MARAK KEPUM LIPY

Route

LIPE MARAK KEPUM LIPY

ID Type Via Altitude Latitude Longitude Leg Dist Tot Dist Heading (true) Name
O LIPE APT - 0 ft / 0 m 44.53545˚ 11.28866˚ - 0 nm - BOLOGNA
MARAK FIX - 0 ft / 0 m 44.24917˚ 11.91972˚ 32 nm 32 nm 122° / 123° -
KEPUM FIX - 0 ft / 0 m 43.74056˚ 13.53333˚ 76 nm 108 nm 113° / 114° -
O LIPY APT - 0 ft / 0 m 43.61635˚ 13.36231˚ 10 nm 118 nm 225° / 225° FALCONARA

Altitude Profile

Advertisement - Login to hide

LIPE

Details ICAO LIPE (BLQ)
Name BOLOGNA
Region Italy
Timezone Europe/Rome (UTC+1.0)
Stats Elevation 123 ft / 37 m (AMSL)
Location 44.535446° 11.288662°
Runways 1
Magnetic Variation 2.917° E

METAR

LIPE 110850Z 06004KT 020V110 2500 -DZ BR BKN003 BKN006 01/01 Q1000

Decode

TAF

TAF LIPE 110500Z 1106/1206 VRB06KT 8000 SCT020 TEMPO 1106/1108 1500 BR BKN006 BECMG 1107/1109 19010KT

Decode

Departure Runways

ID Width Length Bearing (true) Bearing (mag) Surface Threshold Offset Overrun Length
12 148 ft / 45 m 9,185 ft / 2,800 m 116.78° 113.86° Asphalt 1,007 ft / 307 m 0 ft / 0 m
30 148 ft / 45 m 9,185 ft / 2,800 m 296.81° 293.89° Asphalt 1,188 ft / 362 m 200 ft / 61 m

LIPY

Details ICAO LIPY (AOI)
Name FALCONARA
Region Italy
Timezone Europe/Rome (UTC+1.0)
Stats Elevation 49 ft / 15 m (AMSL)
Location 43.616351° 13.362310°
Runways 1
Magnetic Variation 3.293° E

METAR

LIPY 110850Z 15005KT 100V190 9999 SCT030 BKN060 15/10 Q1003

Decode

TAF

TAF LIPY 110500Z 1106/1206 20016G28KT 9999 SCT030

Decode

Destination Runways

ID Width Length Bearing (true) Bearing (mag) Surface Threshold Offset Overrun Length
04 148 ft / 45 m 9,711 ft / 2,960 m 44.81° 41.52° Asphalt 641 ft / 195 m 0 ft / 0 m
22 148 ft / 45 m 9,711 ft / 2,960 m 224.83° 221.54° Asphalt 492 ft / 150 m 0 ft / 0 m

Approach Navaids

Runway Type Ident Frequency Range Bearing (true) Bearing (mag) Slope Elevation
22 Localiser IFA 111.90 MHz 18 nm / 33 km 224.79° 221.50° - 47 ft / 14 m (AMSL)
22 Glidescope IFA 111.90 MHz 10 nm / 19 km 224.82° 221.53° 3.50° 34 ft / 10 m (AMSL)
22 DME IFA 111.90 MHz 18 nm / 33 km - - - 50 ft / 15 m (AMSL)

Popular Alternatives